BLA86B LROP-LOWW
Flight info
| Callsign | BLA86B |
|---|---|
| Flight time | 1h 12m |
| Altitude | 38000 |
| Route | SOKRU DCT OXDOC DCT ULMIN DCT DEGET DCT ERGUZ DCT BALUX DCT TORNO DCT NATEX NATEX2W |
| Aircraft | B738/M-SDE2E3FGHIRWXY/LB1 |
Departure
| Time | 2026-04-30 18:09 |
|---|---|
| Airport | Bucharest Henri Coandă International Airport (LROP) |
Arrival
| Time | 2026-04-30 19:21 |
|---|---|
| Airport | Vienna International Airport (LOWW) |
| Time | Latitude | Longitude | Altitude | Speed | Heading |
|---|---|---|---|---|---|
| 2026-04-30 18:08 | 44.65417 | 26.21691 | 8419 ft | 268 kts | 343° |
| 2026-04-30 18:09 | 44.72832 | 26.18365 | 11086 ft | 312 kts | 343° |
| 2026-04-30 18:10 | 44.79517 | 26.10485 | 14094 ft | 335 kts | 302° |
| 2026-04-30 18:11 | 44.84523 | 25.98963 | 16823 ft | 354 kts | 301° |
| 2026-04-30 18:11 | 44.87711 | 25.89537 | 18906 ft | 361 kts | 284° |
| 2026-04-30 18:12 | 44.89748 | 25.79243 | 20906 ft | 365 kts | 283° |
| 2026-04-30 18:13 | 44.91162 | 25.72314 | 22164 ft | 369 kts | 283° |
| 2026-04-30 18:13 | 44.93095 | 25.62994 | 23783 ft | 374 kts | 283° |
| 2026-04-30 18:14 | 44.94837 | 25.54593 | 24602 ft | 389 kts | 285° |
| 2026-04-30 18:15 | 44.97119 | 25.43559 | 26042 ft | 392 kts | 285° |
| 2026-04-30 18:15 | 44.99421 | 25.32356 | 27300 ft | 399 kts | 285° |
| 2026-04-30 18:16 | 45.00968 | 25.24789 | 28097 ft | 405 kts | 286° |
| 2026-04-30 18:16 | 45.03273 | 25.17472 | 28766 ft | 412 kts | 301° |
| 2026-04-30 18:17 | 45.04839 | 25.14053 | 29191 ft | 414 kts | 303° |
| 2026-04-30 18:17 | 45.06437 | 25.10674 | 29578 ft | 416 kts | 303° |
| 2026-04-30 18:17 | 45.09657 | 25.03809 | 30274 ft | 421 kts | 302° |
| 2026-04-30 18:18 | 45.11261 | 25.00322 | 30574 ft | 423 kts | 302° |
| 2026-04-30 18:18 | 45.12855 | 24.96813 | 30866 ft | 425 kts | 301° |
| 2026-04-30 18:18 | 45.14451 | 24.93276 | 31152 ft | 427 kts | 302° |
| 2026-04-30 18:18 | 45.16046 | 24.89721 | 31457 ft | 428 kts | 302° |
| 2026-04-30 18:19 | 45.17101 | 24.87364 | 31696 ft | 427 kts | 302° |
| 2026-04-30 18:19 | 45.19197 | 24.82672 | 32249 ft | 425 kts | 302° |
| 2026-04-30 18:19 | 45.20774 | 24.79134 | 32631 ft | 424 kts | 302° |
| 2026-04-30 18:19 | 45.22351 | 24.75594 | 32970 ft | 424 kts | 301° |
| 2026-04-30 18:20 | 45.23925 | 24.72057 | 33306 ft | 423 kts | 301° |
| 2026-04-30 18:20 | 45.25488 | 24.68540 | 33683 ft | 422 kts | 301° |
| 2026-04-30 18:20 | 45.26530 | 24.66195 | 33937 ft | 422 kts | 301° |
| 2026-04-30 18:20 | 45.28089 | 24.62679 | 34233 ft | 422 kts | 301° |
| 2026-04-30 18:21 | 45.29660 | 24.59134 | 34465 ft | 424 kts | 301° |
| 2026-04-30 18:21 | 45.31232 | 24.55584 | 34660 ft | 426 kts | 301° |
| 2026-04-30 18:21 | 45.32808 | 24.52018 | 34931 ft | 426 kts | 301° |
| 2026-04-30 18:21 | 45.34380 | 24.48457 | 35228 ft | 425 kts | 301° |
| 2026-04-30 18:22 | 45.35947 | 24.44904 | 35469 ft | 425 kts | 301° |
| 2026-04-30 18:22 | 45.39088 | 24.37765 | 35958 ft | 425 kts | 301° |
| 2026-04-30 18:22 | 45.40657 | 24.34192 | 36217 ft | 425 kts | 302° |
| 2026-04-30 18:23 | 45.42221 | 24.30627 | 36410 ft | 427 kts | 302° |
| 2026-04-30 18:23 | 45.43795 | 24.27035 | 36634 ft | 427 kts | 302° |
| 2026-04-30 18:23 | 45.45364 | 24.23449 | 36898 ft | 426 kts | 302° |
| 2026-04-30 18:23 | 45.46928 | 24.19870 | 37150 ft | 426 kts | 302° |
| 2026-04-30 18:24 | 45.50062 | 24.12685 | 37545 ft | 427 kts | 302° |
| 2026-04-30 18:24 | 45.51610 | 24.09129 | 37749 ft | 428 kts | 302° |
| 2026-04-30 18:24 | 45.53196 | 24.05482 | 38000 ft | 427 kts | 302° |
| 2026-04-30 18:25 | 45.54758 | 24.01883 | 38229 ft | 426 kts | 302° |
| 2026-04-30 18:25 | 45.57868 | 23.94708 | 38352 ft | 430 kts | 302° |
| 2026-04-30 18:25 | 45.59442 | 23.91069 | 38336 ft | 429 kts | 302° |
| 2026-04-30 18:26 | 45.64081 | 23.80314 | 38322 ft | 415 kts | 302° |
| 2026-04-30 18:27 | 45.68544 | 23.69931 | 38338 ft | 406 kts | 302° |
| 2026-04-30 18:28 | 45.72962 | 23.59614 | 38331 ft | 405 kts | 302° |
| 2026-04-30 18:28 | 45.77364 | 23.49297 | 38335 ft | 405 kts | 302° |
| 2026-04-30 18:29 | 45.83028 | 23.35287 | 38330 ft | 408 kts | 296° |
| 2026-04-30 18:30 | 45.87797 | 23.20590 | 38333 ft | 411 kts | 296° |
| 2026-04-30 18:31 | 45.91490 | 23.09281 | 38306 ft | 422 kts | 296° |
| 2026-04-30 18:32 | 45.95245 | 22.97823 | 38317 ft | 426 kts | 296° |
| 2026-04-30 18:33 | 45.99003 | 22.86308 | 38301 ft | 414 kts | 296° |
| 2026-04-30 18:33 | 46.02624 | 22.75165 | 38304 ft | 411 kts | 296° |
| 2026-04-30 18:34 | 46.06235 | 22.64007 | 38316 ft | 409 kts | 296° |
| 2026-04-30 18:35 | 46.08635 | 22.56565 | 38306 ft | 410 kts | 296° |
| 2026-04-30 18:35 | 46.11034 | 22.49103 | 38311 ft | 411 kts | 296° |
| 2026-04-30 18:36 | 46.14638 | 22.37851 | 38295 ft | 413 kts | 296° |
| 2026-04-30 18:37 | 46.18250 | 22.26528 | 38303 ft | 416 kts | 296° |
| 2026-04-30 18:37 | 46.20664 | 22.18928 | 38300 ft | 417 kts | 296° |
| 2026-04-30 18:38 | 46.23080 | 22.11323 | 38286 ft | 414 kts | 296° |
| 2026-04-30 18:38 | 46.25446 | 22.03843 | 38304 ft | 408 kts | 296° |
| 2026-04-30 18:39 | 46.27818 | 21.96290 | 38307 ft | 417 kts | 296° |
| 2026-04-30 18:39 | 46.30231 | 21.88598 | 38298 ft | 421 kts | 296° |
| 2026-04-30 18:40 | 46.32653 | 21.80857 | 38304 ft | 424 kts | 296° |
| 2026-04-30 18:40 | 46.35084 | 21.73069 | 38282 ft | 424 kts | 296° |
| 2026-04-30 18:41 | 46.37509 | 21.65275 | 38305 ft | 424 kts | 296° |
| 2026-04-30 18:41 | 46.39926 | 21.57483 | 38308 ft | 425 kts | 296° |
| 2026-04-30 18:42 | 46.42366 | 21.49592 | 38315 ft | 433 kts | 296° |
| 2026-04-30 18:42 | 46.46095 | 21.37484 | 38298 ft | 441 kts | 296° |
| 2026-04-30 18:45 | 46.62076 | 20.94241 | 38315 ft | 440 kts | 301° |
| 2026-04-30 18:46 | 46.65075 | 20.86496 | 38320 ft | 439 kts | 301° |
| 2026-04-30 18:46 | 46.68058 | 20.78771 | 38322 ft | 437 kts | 301° |
| 2026-04-30 18:47 | 46.71034 | 20.71043 | 38319 ft | 436 kts | 301° |
| 2026-04-30 18:47 | 46.73987 | 20.63358 | 38326 ft | 436 kts | 301° |
| 2026-04-30 18:48 | 46.76948 | 20.55626 | 38332 ft | 436 kts | 301° |
| 2026-04-30 18:48 | 46.79906 | 20.47883 | 38330 ft | 437 kts | 301° |
| 2026-04-30 18:49 | 46.82865 | 20.40116 | 38331 ft | 438 kts | 301° |
| 2026-04-30 18:49 | 46.85807 | 20.32368 | 38330 ft | 440 kts | 301° |
| 2026-04-30 18:50 | 46.88773 | 20.24537 | 38334 ft | 441 kts | 301° |
| 2026-04-30 18:50 | 46.91746 | 20.16662 | 38340 ft | 442 kts | 301° |
| 2026-04-30 18:51 | 46.94716 | 20.08772 | 38342 ft | 443 kts | 301° |
| 2026-04-30 18:51 | 46.97685 | 20.00862 | 38333 ft | 444 kts | 301° |
| 2026-04-30 18:52 | 47.00648 | 19.92943 | 38350 ft | 444 kts | 301° |
| 2026-04-30 18:52 | 47.03610 | 19.85008 | 38349 ft | 444 kts | 301° |
| 2026-04-30 18:53 | 47.06659 | 19.77151 | 38345 ft | 442 kts | 304° |
| 2026-04-30 18:53 | 47.09957 | 19.69536 | 38323 ft | 442 kts | 305° |
| 2026-04-30 18:54 | 47.13269 | 19.61948 | 38333 ft | 441 kts | 305° |
| 2026-04-30 18:54 | 47.16525 | 19.54383 | 38340 ft | 441 kts | 305° |
| 2026-04-30 18:55 | 47.19801 | 19.46702 | 38184 ft | 443 kts | 305° |
| 2026-04-30 18:55 | 47.23057 | 19.39040 | 37126 ft | 443 kts | 305° |
| 2026-04-30 18:55 | 47.24682 | 19.35206 | 36557 ft | 441 kts | 305° |
| 2026-04-30 18:56 | 47.27931 | 19.27533 | 35335 ft | 442 kts | 305° |
| 2026-04-30 18:56 | 47.29558 | 19.23681 | 34672 ft | 444 kts | 306° |
| 2026-04-30 18:56 | 47.31193 | 19.19810 | 34002 ft | 445 kts | 306° |
| 2026-04-30 18:57 | 47.34399 | 19.12107 | 33004 ft | 437 kts | 302° |
| 2026-04-30 18:57 | 47.35761 | 19.08107 | 32518 ft | 435 kts | 299° |
| 2026-04-30 18:57 | 47.37015 | 19.04069 | 32050 ft | 431 kts | 298° |
| 2026-04-30 18:58 | 47.39428 | 18.96090 | 31162 ft | 422 kts | 298° |
| 2026-04-30 18:58 | 47.40631 | 18.92159 | 30706 ft | 418 kts | 298° |
| 2026-04-30 18:58 | 47.41831 | 18.88274 | 30262 ft | 414 kts | 298° |
| 2026-04-30 18:59 | 47.44212 | 18.80616 | 29320 ft | 406 kts | 298° |
| 2026-04-30 19:00 | 47.47693 | 18.69422 | 28003 ft | 394 kts | 298° |
| 2026-04-30 19:00 | 47.48818 | 18.65791 | 27544 ft | 391 kts | 299° |
| 2026-04-30 19:00 | 47.51088 | 18.58452 | 26703 ft | 391 kts | 299° |
| 2026-04-30 19:01 | 47.53376 | 18.51051 | 25870 ft | 416 kts | 298° |
| 2026-04-30 19:01 | 47.54545 | 18.46987 | 25410 ft | 440 kts | 294° |
| 2026-04-30 19:02 | 47.56425 | 18.38347 | 24426 ft | 440 kts | 290° |
| 2026-04-30 19:02 | 47.58161 | 18.29718 | 23393 ft | 435 kts | 290° |
| 2026-04-30 19:03 | 47.59911 | 18.21232 | 22439 ft | 427 kts | 291° |
| 2026-04-30 19:03 | 47.61667 | 18.12888 | 21513 ft | 419 kts | 292° |
| 2026-04-30 19:04 | 47.63562 | 18.04928 | 19657 ft | 404 kts | 295° |
| 2026-04-30 19:04 | 47.65533 | 17.97079 | 17886 ft | 406 kts | 294° |
| 2026-04-30 19:05 | 47.67422 | 17.89417 | 16831 ft | 391 kts | 294° |
| 2026-04-30 19:05 | 47.69235 | 17.81956 | 14903 ft | 383 kts | 293° |
| 2026-04-30 19:06 | 47.71014 | 17.74591 | 14039 ft | 382 kts | 293° |
| 2026-04-30 19:06 | 47.71930 | 17.70799 | 13554 ft | 395 kts | 293° |
| 2026-04-30 19:06 | 47.73786 | 17.63068 | 12601 ft | 395 kts | 292° |
| 2026-04-30 19:07 | 47.75601 | 17.55455 | 11701 ft | 388 kts | 292° |
| 2026-04-30 19:07 | 47.76496 | 17.51693 | 11239 ft | 385 kts | 292° |
| 2026-04-30 19:08 | 47.78266 | 17.44241 | 10359 ft | 372 kts | 292° |
| 2026-04-30 19:08 | 47.79916 | 17.37254 | 9455 ft | 337 kts | 292° |
| 2026-04-30 19:08 | 47.80663 | 17.34079 | 9290 ft | 314 kts | 292° |
| 2026-04-30 19:09 | 47.82041 | 17.28234 | 9081 ft | 288 kts | 292° |
| 2026-04-30 19:09 | 47.82693 | 17.25467 | 8752 ft | 279 kts | 292° |
| 2026-04-30 19:09 | 47.83334 | 17.22748 | 8257 ft | 276 kts | 292° |
| 2026-04-30 19:10 | 47.84530 | 17.17652 | 8081 ft | 249 kts | 292° |
| 2026-04-30 19:10 | 47.85649 | 17.12814 | 8017 ft | 246 kts | 292° |
| 2026-04-30 19:11 | 47.86018 | 17.11247 | 7961 ft | 238 kts | 293° |
| 2026-04-30 19:11 | 47.87049 | 17.06847 | 7763 ft | 209 kts | 294° |
| 2026-04-30 19:11 | 47.87519 | 17.04840 | 7457 ft | 203 kts | 294° |
| 2026-04-30 19:12 | 47.87984 | 17.02858 | 7098 ft | 203 kts | 294° |
| 2026-04-30 19:12 | 47.88441 | 17.00904 | 6822 ft | 201 kts | 294° |
| 2026-04-30 19:12 | 47.88904 | 16.98920 | 6529 ft | 199 kts | 294° |
| 2026-04-30 19:13 | 47.89794 | 16.95095 | 6043 ft | 195 kts | 294° |
| 2026-04-30 19:13 | 47.90688 | 16.91246 | 5568 ft | 197 kts | 294° |
| 2026-04-30 19:13 | 47.91134 | 16.89320 | 5349 ft | 196 kts | 294° |
| 2026-04-30 19:14 | 47.91579 | 16.87400 | 5133 ft | 195 kts | 294° |
| 2026-04-30 19:14 | 47.92018 | 16.85501 | 4919 ft | 193 kts | 294° |
| 2026-04-30 19:14 | 47.92451 | 16.83624 | 4714 ft | 191 kts | 294° |
| 2026-04-30 19:14 | 47.92877 | 16.81773 | 4529 ft | 187 kts | 294° |
| 2026-04-30 19:15 | 47.93301 | 16.79936 | 4340 ft | 190 kts | 294° |
| 2026-04-30 19:15 | 47.94152 | 16.76236 | 3908 ft | 180 kts | 294° |
| 2026-04-30 19:15 | 47.94544 | 16.74526 | 3684 ft | 170 kts | 294° |
| 2026-04-30 19:16 | 47.94914 | 16.72912 | 3499 ft | 159 kts | 295° |
| 2026-04-30 19:16 | 47.95266 | 16.71379 | 3287 ft | 155 kts | 295° |
| 2026-04-30 19:16 | 47.95989 | 16.68240 | 3076 ft | 163 kts | 294° |
| 2026-04-30 19:17 | 47.96355 | 16.66644 | 3032 ft | 163 kts | 294° |
| 2026-04-30 19:17 | 47.97525 | 16.63986 | 2967 ft | 151 kts | 347° |
| 2026-04-30 19:17 | 47.98549 | 16.63559 | 2773 ft | 154 kts | 345° |
| 2026-04-30 19:18 | 48.00204 | 16.62812 | 2414 ft | 142 kts | 347° |
| 2026-04-30 19:18 | 48.01435 | 16.62285 | 2165 ft | 133 kts | 347° |
| 2026-04-30 19:18 | 48.02342 | 16.61902 | 1981 ft | 138 kts | 348° |
| 2026-04-30 19:19 | 48.03281 | 16.61497 | 1786 ft | 140 kts | 346° |
| 2026-04-30 19:19 | 48.04209 | 16.61097 | 1586 ft | 138 kts | 346° |
| 2026-04-30 19:19 | 48.06032 | 16.60329 | 1212 ft | 139 kts | 345° |
| 2026-04-30 19:20 | 48.06976 | 16.59930 | 1022 ft | 142 kts | 345° |
| 2026-04-30 19:20 | 48.07926 | 16.59527 | 834 ft | 142 kts | 345° |
| 2026-04-30 19:20 | 48.09742 | 16.58771 | 622 ft | 102 kts | 343° |
| 2026-04-30 19:21 | 48.10211 | 16.58564 | 612 ft | 39 kts | 344° |
| 2026-04-30 19:21 | 48.10475 | 16.58205 | 612 ft | 3 kts | 289° |
| 2026-04-30 19:22 | 48.10506 | 16.58161 | 609 ft | 13 kts | 335° |
| 2026-04-30 19:22 | 48.10916 | 16.57985 | 615 ft | 20 kts | 339° |
| 2026-04-30 19:23 | 48.11155 | 16.57723 | 613 ft | 16 kts | 309° |
| 2026-04-30 19:24 | 48.11247 | 16.57443 | 618 ft | 14 kts | 296° |
| 2026-04-30 19:24 | 48.11290 | 16.57308 | 621 ft | 16 kts | 296° |
| 2026-04-30 19:24 | 48.11403 | 16.56963 | 617 ft | 16 kts | 296° |
| 2026-04-30 19:25 | 48.11630 | 16.56936 | 613 ft | 11 kts | 26° |
| 2026-04-30 19:26 | 48.11656 | 16.56954 | 616 ft | 0 kts | 25° |